createdAt,value
2019-04-28T00:00:08.369Z,1005.33
2019-04-28T00:05:08.057Z,1005.35
2019-04-28T00:10:07.368Z,1005.35
2019-04-28T00:15:06.314Z,1005.35
2019-04-28T00:20:06.060Z,1005.30
2019-04-28T00:25:06.384Z,1005.28
2019-04-28T00:35:05.821Z,1005.22
2019-04-28T00:40:05.084Z,1005.20
2019-04-28T00:45:05.112Z,1005.20
2019-04-28T00:50:04.133Z,1005.17
2019-04-28T00:55:04.147Z,1005.14
2019-04-28T01:00:04.273Z,1005.06
2019-04-28T01:05:04.131Z,1005.09
2019-04-28T01:10:04.170Z,1005.04
2019-04-28T01:15:04.925Z,1005.06
2019-04-28T01:20:04.092Z,1005.14
2019-04-28T01:25:03.401Z,1005.09
2019-04-28T01:30:07.983Z,1005.17
2019-04-28T01:35:02.291Z,1005.11
2019-04-28T01:40:02.353Z,1005.22
2019-04-28T01:45:02.195Z,1005.27
2019-04-28T01:50:03.081Z,1005.27
2019-04-28T01:55:04.159Z,1005.32
2019-04-28T02:00:04.125Z,1005.27
2019-04-28T02:05:04.250Z,1005.37
2019-04-28T02:10:04.483Z,1005.32
2019-04-28T02:15:03.255Z,1005.35
2019-04-28T02:20:03.410Z,1005.45
2019-04-28T02:25:03.223Z,1005.45
2019-04-28T02:30:03.094Z,1005.48
2019-04-28T02:35:03.244Z,1005.43
2019-04-28T02:40:03.873Z,1005.48
2019-04-28T02:50:02.184Z,1005.56
2019-04-28T02:55:03.004Z,1005.61
2019-04-28T03:00:02.172Z,1005.55
2019-04-28T03:05:01.425Z,1005.58
2019-04-28T03:10:03.748Z,1005.53
2019-04-28T03:15:03.157Z,1005.58
2019-04-28T03:20:02.515Z,1005.60
2019-04-28T03:25:02.164Z,1005.60
2019-04-28T03:30:02.125Z,1005.68
2019-04-28T03:35:03.679Z,1005.74
2019-04-28T03:40:01.132Z,1005.68
2019-04-28T03:45:01.200Z,1005.72
2019-04-28T03:50:01.375Z,1005.78
2019-04-28T03:55:01.258Z,1005.76
2019-04-28T04:00:01.569Z,1005.87
2019-04-28T04:05:03.807Z,1005.82
2019-04-28T04:10:00.900Z,1005.82
2019-04-28T04:15:00.806Z,1005.84
2019-04-28T04:20:01.789Z,1005.89
2019-04-28T04:25:01.247Z,1005.89
2019-04-28T04:30:01.471Z,1006.00
2019-04-28T04:35:00.867Z,1006.10
2019-04-28T04:40:01.159Z,1006.16
2019-04-28T04:45:00.541Z,1006.16
2019-04-28T04:50:00.221Z,1006.21
2019-04-28T04:54:58.229Z,1006.23
2019-04-28T04:59:59.973Z,1006.18
2019-04-28T05:09:59.513Z,1006.37
2019-04-28T05:14:58.253Z,1006.38
2019-04-28T05:19:57.237Z,1006.43
2019-04-28T05:24:57.130Z,1006.46
2019-04-28T05:29:56.846Z,1006.52
2019-04-28T05:34:55.194Z,1006.44
2019-04-28T05:39:54.608Z,1006.49
2019-04-28T05:44:54.193Z,1006.55
2019-04-28T05:49:53.558Z,1006.49
2019-04-28T05:54:52.417Z,1006.46
2019-04-28T05:59:53.106Z,1006.52
2019-04-28T06:04:52.507Z,1006.60
2019-04-28T06:09:52.404Z,1006.55
2019-04-28T06:14:51.133Z,1006.53
2019-04-28T06:19:51.163Z,1006.61
2019-04-28T06:24:52.196Z,1006.67
2019-04-28T06:29:51.560Z,1006.73
2019-04-28T06:34:51.157Z,1006.71
2019-04-28T06:39:51.226Z,1006.77
2019-04-28T06:44:50.166Z,1006.77
2019-04-28T06:49:50.138Z,1006.86
2019-04-28T06:59:50.205Z,1006.96
2019-04-28T07:05:00.928Z,1007.02
2019-04-28T07:09:48.506Z,1007.07
2019-04-28T07:14:47.529Z,1007.13
2019-04-28T07:19:46.539Z,1007.03
2019-04-28T07:24:46.327Z,1007.05
2019-04-28T07:29:45.243Z,1007.11
2019-04-28T07:34:44.232Z,1007.20
2019-04-28T07:39:43.292Z,1007.23
2019-04-28T07:44:42.716Z,1007.27
2019-04-28T07:49:43.149Z,1007.36
2019-04-28T07:54:42.113Z,1007.41
2019-04-28T07:59:41.388Z,1007.41
2019-04-28T08:04:41.257Z,1007.48
2019-04-28T08:09:41.084Z,1007.52
2019-04-28T08:14:40.532Z,1007.49
2019-04-28T08:19:39.932Z,1007.50
2019-04-28T08:24:38.800Z,1007.48
2019-04-28T08:29:38.528Z,1007.46
2019-04-28T08:34:38.562Z,1007.58
2019-04-28T08:39:38.630Z,1007.56
2019-04-28T08:44:37.564Z,1007.63
2019-04-28T08:49:36.583Z,1007.64
2019-04-28T08:54:36.564Z,1007.56
2019-04-28T08:59:36.580Z,1007.65
2019-04-28T09:04:35.657Z,1007.60
2019-04-28T09:09:35.618Z,1007.67
2019-04-28T09:14:35.835Z,1007.69
2019-04-28T09:19:35.610Z,1007.76
2019-04-28T09:24:36.653Z,1007.80
2019-04-28T09:29:36.625Z,1007.77
2019-04-28T09:34:35.537Z,1007.67
2019-04-28T09:39:34.936Z,1007.68
2019-04-28T09:44:34.544Z,1007.70
2019-04-28T09:49:34.551Z,1007.78
2019-04-28T09:54:33.570Z,1007.74
2019-04-28T09:59:33.586Z,1007.71
2019-04-28T10:04:41.345Z,1007.68
2019-04-28T10:09:32.944Z,1007.82
2019-04-28T10:14:32.558Z,1007.82
2019-04-28T10:19:32.656Z,1007.84
2019-04-28T10:24:31.512Z,1007.87
2019-04-28T10:29:32.997Z,1007.86
2019-04-28T10:34:31.571Z,1007.85
2019-04-28T10:39:30.563Z,1007.95
2019-04-28T10:44:30.525Z,1007.92
2019-04-28T10:49:30.525Z,1007.99
2019-04-28T10:54:29.520Z,1008.05
2019-04-28T10:59:29.498Z,1008.04
2019-04-28T11:04:28.553Z,1008.06
2019-04-28T11:09:30.756Z,1008.05
2019-04-28T11:14:27.515Z,1008.07
2019-04-28T11:19:27.063Z,1008.13
2019-04-28T11:24:26.554Z,1008.11
2019-04-28T11:29:26.528Z,1008.05
2019-04-28T11:34:25.654Z,1008.04
2019-04-28T11:39:26.519Z,1008.07
2019-04-28T11:44:26.487Z,1008.00
2019-04-28T11:49:25.568Z,1007.98
2019-04-28T11:54:25.498Z,1007.95
2019-04-28T12:04:24.551Z,1008.07
2019-04-28T12:09:24.532Z,1007.96
2019-04-28T12:14:23.907Z,1007.95
2019-04-28T12:19:22.907Z,1008.09
2019-04-28T12:24:21.555Z,1008.05
2019-04-28T12:29:21.543Z,1008.02
2019-04-28T12:34:22.595Z,1008.12
2019-04-28T12:39:21.793Z,1008.26
2019-04-28T12:44:22.563Z,1008.29
2019-04-28T12:49:23.025Z,1008.20
2019-04-28T12:54:22.553Z,1008.21
2019-04-28T12:59:22.905Z,1008.32
2019-04-28T13:04:22.900Z,1008.38
2019-04-28T13:09:22.565Z,1008.29
2019-04-28T13:14:21.612Z,1008.40
2019-04-28T13:19:21.560Z,1008.37
2019-04-28T13:24:21.513Z,1008.47
2019-04-28T13:29:20.838Z,1008.59
2019-04-28T13:34:19.693Z,1008.59
2019-04-28T13:39:19.498Z,1008.70
2019-04-28T13:44:18.733Z,1008.70
2019-04-28T13:49:18.558Z,1008.64
2019-04-28T13:54:17.553Z,1008.71
2019-04-28T13:59:16.930Z,1008.64
2019-04-28T14:04:17.596Z,1008.67
2019-04-28T14:09:17.645Z,1008.60
2019-04-28T14:14:17.606Z,1008.67
2019-04-28T14:19:16.944Z,1008.73
2019-04-28T14:24:17.568Z,1008.75
2019-04-28T14:29:17.530Z,1008.67
2019-04-28T14:34:16.673Z,1008.76
2019-04-28T14:39:16.496Z,1008.82
2019-04-28T14:44:17.782Z,1008.76
2019-04-28T14:49:16.032Z,1008.81
2019-04-28T14:54:15.522Z,1008.88
2019-04-28T14:59:15.583Z,1008.81
2019-04-28T15:04:15.481Z,1008.86
2019-04-28T15:09:15.550Z,1008.79
2019-04-28T15:14:14.847Z,1008.81
2019-04-28T15:19:14.521Z,1008.95
2019-04-28T15:24:14.549Z,1008.91
2019-04-28T15:29:14.636Z,1008.97
2019-04-28T15:34:13.519Z,1008.97
2019-04-28T15:39:12.494Z,1008.99
2019-04-28T15:44:11.627Z,1008.89
2019-04-28T15:49:10.962Z,1008.86
2019-04-28T15:54:10.510Z,1008.96
2019-04-28T15:59:10.581Z,1008.92
2019-04-28T16:04:09.617Z,1009.05
2019-04-28T16:09:08.495Z,1009.06
2019-04-28T16:14:08.487Z,1009.03
2019-04-28T16:19:08.491Z,1009.08
2019-04-28T16:24:08.538Z,1009.15
2019-04-28T16:29:08.483Z,1009.10
2019-04-28T16:34:08.548Z,1009.19
2019-04-28T16:39:08.525Z,1009.23
2019-04-28T16:44:07.699Z,1009.19
2019-04-28T16:49:08.512Z,1009.27
2019-04-28T16:54:07.586Z,1009.23
2019-04-28T16:59:08.735Z,1009.25
2019-04-28T17:04:08.522Z,1009.35
2019-04-28T17:09:08.524Z,1009.41
2019-04-28T17:14:09.615Z,1009.46
2019-04-28T17:19:09.500Z,1009.54
2019-04-28T17:24:09.591Z,1009.54
2019-04-28T17:29:10.526Z,1009.58
2019-04-28T17:34:10.525Z,1009.52
2019-04-28T17:39:09.474Z,1009.55
2019-04-28T17:44:08.458Z,1009.65
2019-04-28T17:49:08.477Z,1009.66
2019-04-28T17:54:07.822Z,1009.66
2019-04-28T17:59:07.524Z,1009.69
2019-04-28T18:04:06.602Z,1009.79
2019-04-28T18:09:05.655Z,1009.92
2019-04-28T18:14:04.931Z,1010.13
2019-04-28T18:19:04.516Z,1010.19
2019-04-28T18:24:03.761Z,1010.19
2019-04-28T18:29:04.445Z,1010.27
2019-04-28T18:34:03.858Z,1010.32
2019-04-28T18:39:02.672Z,1010.49
2019-04-28T18:44:02.497Z,1010.50
2019-04-28T18:49:02.506Z,1010.59
2019-04-28T18:54:02.445Z,1010.63
2019-04-28T18:59:03.471Z,1010.71
2019-04-28T19:04:03.644Z,1010.88
2019-04-28T19:09:03.740Z,1010.98
2019-04-28T19:14:02.805Z,1010.93
2019-04-28T19:19:02.577Z,1011.06
2019-04-28T19:24:02.505Z,1011.15
2019-04-28T19:29:02.490Z,1011.22
2019-04-28T19:34:03.617Z,1011.30
2019-04-28T19:39:03.805Z,1011.29
2019-04-28T19:44:03.556Z,1011.33
2019-04-28T19:49:03.513Z,1011.43
2019-04-28T19:54:03.031Z,1011.48
2019-04-28T19:59:03.508Z,1011.50
2019-04-28T20:04:02.510Z,1011.54
2019-04-28T20:09:01.521Z,1011.56
2019-04-28T20:14:01.609Z,1011.60
2019-04-28T20:19:00.685Z,1011.65
2019-04-28T20:24:01.507Z,1011.72
2019-04-28T20:29:01.564Z,1011.64
2019-04-28T20:34:00.522Z,1011.71
2019-04-28T20:39:00.642Z,1011.74
2019-04-28T20:43:59.552Z,1011.82
2019-04-28T20:48:59.038Z,1011.89
2019-04-28T20:53:59.509Z,1011.88
2019-04-28T20:59:00.568Z,1011.96
2019-04-28T21:04:01.557Z,1011.94
2019-04-28T21:09:01.524Z,1012.02
2019-04-28T21:14:01.617Z,1012.01
2019-04-28T21:19:00.523Z,1012.04
2019-04-28T21:23:59.457Z,1012.20
2019-04-28T21:28:58.514Z,1012.18
2019-04-28T21:33:58.474Z,1012.30
2019-04-28T21:38:57.752Z,1012.22
2019-04-28T21:43:57.736Z,1012.27
2019-04-28T21:48:57.580Z,1012.26
2019-04-28T21:53:56.718Z,1012.26
2019-04-28T21:58:57.842Z,1012.15
2019-04-28T22:03:57.552Z,1012.19
2019-04-28T22:08:57.598Z,1012.23
2019-04-28T22:13:57.520Z,1012.37
2019-04-28T22:18:56.924Z,1012.37
2019-04-28T22:23:57.544Z,1012.36
2019-04-28T22:28:57.527Z,1012.45
2019-04-28T22:33:57.530Z,1012.43
2019-04-28T22:38:57.525Z,1012.43
2019-04-28T22:43:57.556Z,1012.46
2019-04-28T22:48:58.645Z,1012.47
2019-04-28T22:53:58.564Z,1012.48
2019-04-28T22:58:58.597Z,1012.45
2019-04-28T23:03:57.665Z,1012.54
2019-04-28T23:08:58.483Z,1012.65
2019-04-28T23:13:58.585Z,1012.67
2019-04-28T23:18:57.581Z,1012.65
2019-04-28T23:23:56.586Z,1012.68
2019-04-28T23:28:55.673Z,1012.77
2019-04-28T23:33:56.538Z,1012.76
2019-04-28T23:38:55.560Z,1012.83
2019-04-28T23:43:55.576Z,1012.90
2019-04-28T23:48:54.825Z,1012.91
2019-04-28T23:53:54.545Z,1012.88
2019-04-28T23:58:54.735Z,1013.00
